עמוד ראשי
METAR-TAF:

METAR-TAF

שדות תעופה :

קובה, יפן

קו רוחב: 34-37-58N, קו אורך: 135-13-26E, גובה: 7מטר

תצפית מזג אוויר נוכחית

הדו"ח נערך לפני 1 שעות ו 18דקות, בשעה 03:00 UTC
רוח 8קשר מכיוון דרום/דרום-מערב, משתנה בין דרום/דרום-מערב ו מערב
טמפרטורת 31 צלסיוס
לחות 84%
לחץ 1011 hPa
ראות 10 קילומטר או יותר
מעט עננים בגובה 2500רגל

METAR: RJBE 210300Z 21008KT 200V260 9999 FEW025 31/28 Q1011

זמן: 13:18 (04:18 UTC)


TAF: חסר

תצפיות ותחזיות מזג אוויר לגבי יותר מ- 4,000 שדות תעופה ברחבי העולם. דוחות METAR ו- TAF.

התחנות הזמינות מסומנות בנקודות צהובות ואדומות על גבי המפה.

העבר את העכבר לנקודה הצבעונית על מנת לראות את שם התחנה.

לאחר מכן, לחץ כדי לראות את תוכן ואת תחזיות מזג האוויר.

כדי לשנות את המפה: לחץ על הכפתורים הירוקים עם הפלוס השחור כדי להתקרב; על הכפתור הירוק עם המקף כדי להתרחק; או בחיצים הירוקים למפות סמוכות.


METAR-TAF: